sensor_id;sensor_type;location;lat;lon;timestamp;pressure;altitude;pressure_sealevel;temperature;humidity
62592;BME280;48659;41.622;2.276;2023-02-18T00:00:58;101366.01;;;7.35;45.18
62592;BME280;48659;41.622;2.276;2023-02-18T00:03:26;101364.59;;;6.97;45.14
62592;BME280;48659;41.622;2.276;2023-02-18T00:05:54;101359.17;;;7.51;45.36
62592;BME280;48659;41.622;2.276;2023-02-18T00:08:24;101357.50;;;7.32;44.96
62592;BME280;48659;41.622;2.276;2023-02-18T00:10:51;101362.96;;;7.22;45.97
62592;BME280;48659;41.622;2.276;2023-02-18T00:13:24;101353.56;;;7.35;45.43
62592;BME280;48659;41.622;2.276;2023-02-18T00:15:52;101355.42;;;6.88;45.76
62592;BME280;48659;41.622;2.276;2023-02-18T00:18:24;101354.98;;;6.13;46.21
62592;BME280;48659;41.622;2.276;2023-02-18T00:20:51;101351.57;;;6.79;45.85
62592;BME280;48659;41.622;2.276;2023-02-18T00:23:25;101346.81;;;7.22;45.21
62592;BME280;48659;41.622;2.276;2023-02-18T00:25:59;101350.59;;;7.09;45.46
62592;BME280;48659;41.622;2.276;2023-02-18T00:28:27;101348.51;;;7.20;45.22
62592;BME280;48659;41.622;2.276;2023-02-18T00:30:54;101351.17;;;7.14;45.33
62592;BME280;48659;41.622;2.276;2023-02-18T00:33:25;101348.88;;;6.77;45.95
62592;BME280;48659;41.622;2.276;2023-02-18T00:36:00;101352.06;;;6.86;46.09
62592;BME280;48659;41.622;2.276;2023-02-18T00:38:28;101352.84;;;7.05;46.14
62592;BME280;48659;41.622;2.276;2023-02-18T00:40:55;101351.43;;;7.43;45.52
62592;BME280;48659;41.622;2.276;2023-02-18T00:43:24;101350.84;;;6.71;45.31
62592;BME280;48659;41.622;2.276;2023-02-18T00:45:52;101353.72;;;6.65;46.50
62592;BME280;48659;41.622;2.276;2023-02-18T00:48:24;101348.49;;;6.65;45.33
62592;BME280;48659;41.622;2.276;2023-02-18T00:50:51;101342.50;;;7.23;45.52
62592;BME280;48659;41.622;2.276;2023-02-18T00:53:24;101344.03;;;6.61;46.03
62592;BME280;48659;41.622;2.276;2023-02-18T00:55:51;101342.50;;;6.93;45.84
62592;BME280;48659;41.622;2.276;2023-02-18T00:58:25;101335.36;;;7.02;45.65
62592;BME280;48659;41.622;2.276;2023-02-18T01:00:53;101338.48;;;5.94;47.00
62592;BME280;48659;41.622;2.276;2023-02-18T01:03:25;101337.39;;;6.28;46.59
62592;BME280;48659;41.622;2.276;2023-02-18T01:05:53;101334.51;;;6.88;46.75
62592;BME280;48659;41.622;2.276;2023-02-18T01:08:21;101340.95;;;6.47;47.06
62592;BME280;48659;41.622;2.276;2023-02-18T01:10:52;101335.49;;;7.25;45.25
62592;BME280;48659;41.622;2.276;2023-02-18T01:13:26;101342.27;;;6.17;48.01
62592;BME280;48659;41.622;2.276;2023-02-18T01:15:53;101339.60;;;6.40;47.34
62592;BME280;48659;41.622;2.276;2023-02-18T01:18:23;101331.75;;;7.23;45.97
62592;BME280;48659;41.622;2.276;2023-02-18T01:20:50;101341.58;;;7.02;45.99
62592;BME280;48659;41.622;2.276;2023-02-18T01:23:25;101338.12;;;6.71;46.38
62592;BME280;48659;41.622;2.276;2023-02-18T01:25:53;101337.94;;;7.16;46.14
62592;BME280;48659;41.622;2.276;2023-02-18T01:28:25;101340.12;;;6.07;47.27
62592;BME280;48659;41.622;2.276;2023-02-18T01:30:53;101334.91;;;5.33;48.50
62592;BME280;48659;41.622;2.276;2023-02-18T01:33:21;101335.03;;;6.39;47.39
62592;BME280;48659;41.622;2.276;2023-02-18T01:35:48;101332.20;;;5.67;49.83
62592;BME280;48659;41.622;2.276;2023-02-18T01:38:25;101328.92;;;6.27;48.09
62592;BME280;48659;41.622;2.276;2023-02-18T01:40:52;101326.06;;;5.61;48.87
62592;BME280;48659;41.622;2.276;2023-02-18T01:43:20;101323.81;;;5.42;48.73
62592;BME280;48659;41.622;2.276;2023-02-18T01:45:54;101321.31;;;5.91;48.81
62592;BME280;48659;41.622;2.276;2023-02-18T01:48:26;101317.87;;;5.45;49.87
62592;BME280;48659;41.622;2.276;2023-02-18T01:51:00;101318.54;;;5.16;51.53
62592;BME280;48659;41.622;2.276;2023-02-18T01:53:32;101317.43;;;5.89;49.18
62592;BME280;48659;41.622;2.276;2023-02-18T01:56:05;101316.75;;;6.07;49.20
62592;BME280;48659;41.622;2.276;2023-02-18T01:58:35;101307.57;;;6.34;48.52
62592;BME280;48659;41.622;2.276;2023-02-18T02:01:04;101308.80;;;6.22;48.71
62592;BME280;48659;41.622;2.276;2023-02-18T02:03:32;101304.17;;;5.69;49.82
62592;BME280;48659;41.622;2.276;2023-02-18T02:05:59;101304.61;;;5.91;49.65
62592;BME280;48659;41.622;2.276;2023-02-18T02:08:27;101303.41;;;5.72;49.35
62592;BME280;48659;41.622;2.276;2023-02-18T02:11:06;101301.77;;;6.65;48.51
62592;BME280;48659;41.622;2.276;2023-02-18T02:13:50;101303.01;;;6.12;49.27
62592;BME280;48659;41.622;2.276;2023-02-18T02:16:25;101298.69;;;6.20;49.03
62592;BME280;48659;41.622;2.276;2023-02-18T02:19:07;101301.80;;;5.95;49.27
62592;BME280;48659;41.622;2.276;2023-02-18T02:22:01;101298.94;;;5.83;49.46
62592;BME280;48659;41.622;2.276;2023-02-18T02:24:46;101293.31;;;6.65;48.11
62592;BME280;48659;41.622;2.276;2023-02-18T02:27:22;101291.39;;;6.87;47.93
62592;BME280;48659;41.622;2.276;2023-02-18T02:31:28;101289.01;;;7.00;48.38
62592;BME280;48659;41.622;2.276;2023-02-18T02:34:42;101283.88;;;6.28;47.83
62592;BME280;48659;41.622;2.276;2023-02-18T02:37:16;101281.40;;;6.06;48.50
62592;BME280;48659;41.622;2.276;2023-02-18T02:40:01;101284.37;;;5.83;48.94
62592;BME280;48659;41.622;2.276;2023-02-18T02:42:46;101281.68;;;5.74;49.31
62592;BME280;48659;41.622;2.276;2023-02-18T02:45:25;101282.08;;;5.34;49.63
62592;BME280;48659;41.622;2.276;2023-02-18T02:48:01;101285.31;;;5.97;50.21
62592;BME280;48659;41.622;2.276;2023-02-18T02:50:37;101281.58;;;4.88;50.38
62592;BME280;48659;41.622;2.276;2023-02-18T02:53:13;101279.89;;;5.61;50.14
62592;BME280;48659;41.622;2.276;2023-02-18T02:55:42;101279.27;;;5.62;50.32
62592;BME280;48659;41.622;2.276;2023-02-18T02:58:14;101277.41;;;5.64;49.94
62592;BME280;48659;41.622;2.276;2023-02-18T03:00:54;101276.77;;;5.40;51.52
62592;BME280;48659;41.622;2.276;2023-02-18T03:03:42;101277.56;;;5.29;50.39
62592;BME280;48659;41.622;2.276;2023-02-18T03:06:28;101274.83;;;6.24;49.73
62592;BME280;48659;41.622;2.276;2023-02-18T03:09:07;101275.65;;;5.63;50.46
62592;BME280;48659;41.622;2.276;2023-02-18T03:11:43;101271.66;;;4.92;51.06
62592;BME280;48659;41.622;2.276;2023-02-18T03:14:27;101272.25;;;5.53;50.82
62592;BME280;48659;41.622;2.276;2023-02-18T03:16:59;101272.48;;;5.80;50.46
62592;BME280;48659;41.622;2.276;2023-02-18T03:19:32;101270.35;;;5.84;50.58
62592;BME280;48659;41.622;2.276;2023-02-18T03:22:05;101273.02;;;5.70;49.59
62592;BME280;48659;41.622;2.276;2023-02-18T03:24:37;101270.27;;;5.86;49.01
62592;BME280;48659;41.622;2.276;2023-02-18T03:27:08;101266.01;;;6.26;48.64
62592;BME280;48659;41.622;2.276;2023-02-18T03:29:38;101264.41;;;6.17;47.86
62592;BME280;48659;41.622;2.276;2023-02-18T03:32:09;101266.00;;;6.09;48.80
62592;BME280;48659;41.622;2.276;2023-02-18T03:34:42;101263.91;;;5.32;49.58
62592;BME280;48659;41.622;2.276;2023-02-18T03:37:12;101262.31;;;5.94;49.71
62592;BME280;48659;41.622;2.276;2023-02-18T03:39:44;101259.48;;;5.36;49.74
62592;BME280;48659;41.622;2.276;2023-02-18T03:42:12;101262.63;;;6.25;49.20
62592;BME280;48659;41.622;2.276;2023-02-18T03:44:40;101260.96;;;5.92;48.81
62592;BME280;48659;41.622;2.276;2023-02-18T03:47:08;101258.88;;;5.36;49.87
62592;BME280;48659;41.622;2.276;2023-02-18T03:49:35;101257.73;;;5.59;49.05
62592;BME280;48659;41.622;2.276;2023-02-18T03:52:03;101254.83;;;5.53;50.07
62592;BME280;48659;41.622;2.276;2023-02-18T03:54:31;101256.55;;;4.13;51.13
62592;BME280;48659;41.622;2.276;2023-02-18T03:56:59;101255.94;;;4.75;50.75
62592;BME280;48659;41.622;2.276;2023-02-18T03:59:35;101259.68;;;5.44;50.97
62592;BME280;48659;41.622;2.276;2023-02-18T04:02:03;101258.00;;;5.68;49.79
62592;BME280;48659;41.622;2.276;2023-02-18T04:04:31;101257.73;;;5.19;49.65
62592;BME280;48659;41.622;2.276;2023-02-18T04:06:58;101253.94;;;5.71;49.64
62592;BME280;48659;41.622;2.276;2023-02-18T04:09:26;101255.38;;;5.20;49.99
62592;BME280;48659;41.622;2.276;2023-02-18T04:11:53;101258.09;;;5.75;50.26
62592;BME280;48659;41.622;2.276;2023-02-18T04:14:26;101258.44;;;4.90;49.99
62592;BME280;48659;41.622;2.276;2023-02-18T04:16:53;101257.79;;;5.42;49.81
62592;BME280;48659;41.622;2.276;2023-02-18T04:19:24;101251.28;;;4.67;50.68
62592;BME280;48659;41.622;2.276;2023-02-18T04:21:51;101245.95;;;5.07;50.60
62592;BME280;48659;41.622;2.276;2023-02-18T04:24:18;101245.73;;;5.37;50.12
62592;BME280;48659;41.622;2.276;2023-02-18T04:26:46;101246.73;;;5.66;48.81
62592;BME280;48659;41.622;2.276;2023-02-18T04:29:14;101245.66;;;5.57;50.13
62592;BME280;48659;41.622;2.276;2023-02-18T04:31:41;101250.56;;;4.90;50.30
62592;BME280;48659;41.622;2.276;2023-02-18T04:34:08;101255.46;;;5.27;49.94
62592;BME280;48659;41.622;2.276;2023-02-18T04:36:35;101254.00;;;5.63;49.92
62592;BME280;48659;41.622;2.276;2023-02-18T04:39:03;101256.21;;;6.28;49.14
62592;BME280;48659;41.622;2.276;2023-02-18T04:41:31;101254.39;;;5.46;48.73
62592;BME280;48659;41.622;2.276;2023-02-18T04:43:58;101255.30;;;5.19;50.01
62592;BME280;48659;41.622;2.276;2023-02-18T04:46:26;101257.08;;;4.74;51.16
62592;BME280;48659;41.622;2.276;2023-02-18T04:48:53;101258.12;;;4.80;50.98
62592;BME280;48659;41.622;2.276;2023-02-18T04:51:20;101258.60;;;4.68;50.52
62592;BME280;48659;41.622;2.276;2023-02-18T04:53:48;101257.13;;;5.09;50.79
62592;BME280;48659;41.622;2.276;2023-02-18T04:56:23;101263.30;;;3.02;55.65
62592;BME280;48659;41.622;2.276;2023-02-18T04:58:50;101256.93;;;5.04;52.23
62592;BME280;48659;41.622;2.276;2023-02-18T05:01:25;101260.38;;;4.34;51.18
62592;BME280;48659;41.622;2.276;2023-02-18T05:03:52;101265.89;;;4.91;51.02
62592;BME280;48659;41.622;2.276;2023-02-18T05:06:24;101268.17;;;3.80;52.10
62592;BME280;48659;41.622;2.276;2023-02-18T05:08:51;101264.22;;;4.81;51.36
62592;BME280;48659;41.622;2.276;2023-02-18T05:11:20;101268.10;;;5.02;51.04
62592;BME280;48659;41.622;2.276;2023-02-18T05:13:47;101267.02;;;5.02;50.94
62592;BME280;48659;41.622;2.276;2023-02-18T05:16:14;101269.75;;;5.17;50.80
62592;BME280;48659;41.622;2.276;2023-02-18T05:18:42;101272.53;;;4.90;50.44
62592;BME280;48659;41.622;2.276;2023-02-18T05:21:10;101274.68;;;4.78;51.14
62592;BME280;48659;41.622;2.276;2023-02-18T05:23:37;101274.22;;;4.81;51.02
62592;BME280;48659;41.622;2.276;2023-02-18T05:26:04;101276.61;;;4.81;50.98
62592;BME280;48659;41.622;2.276;2023-02-18T05:28:32;101276.63;;;4.48;52.56
62592;BME280;48659;41.622;2.276;2023-02-18T05:31:00;101273.73;;;5.10;51.54
62592;BME280;48659;41.622;2.276;2023-02-18T05:33:27;101276.14;;;5.20;51.02
62592;BME280;48659;41.622;2.276;2023-02-18T05:35:54;101275.00;;;5.09;51.52
62592;BME280;48659;41.622;2.276;2023-02-18T05:38:24;101272.34;;;4.24;51.00
62592;BME280;48659;41.622;2.276;2023-02-18T05:40:52;101272.77;;;4.57;51.59
62592;BME280;48659;41.622;2.276;2023-02-18T05:43:25;101277.46;;;3.30;54.31
62592;BME280;48659;41.622;2.276;2023-02-18T05:45:52;101273.85;;;4.27;51.95
62592;BME280;48659;41.622;2.276;2023-02-18T05:48:19;101272.57;;;4.87;50.95
62592;BME280;48659;41.622;2.276;2023-02-18T05:50:47;101276.21;;;6.00;49.43
62592;BME280;48659;41.622;2.276;2023-02-18T05:53:15;101273.76;;;4.33;51.40
62592;BME280;48659;41.622;2.276;2023-02-18T05:55:42;101267.01;;;5.12;50.81
62592;BME280;48659;41.622;2.276;2023-02-18T05:58:11;101265.69;;;5.45;49.90
62592;BME280;48659;41.622;2.276;2023-02-18T06:00:38;101265.30;;;4.68;51.23
62592;BME280;48659;41.622;2.276;2023-02-18T06:03:05;101264.81;;;4.42;51.88
62592;BME280;48659;41.622;2.276;2023-02-18T06:05:33;101261.99;;;4.80;50.99
62592;BME280;48659;41.622;2.276;2023-02-18T06:07:59;101260.26;;;4.86;51.54
62592;BME280;48659;41.622;2.276;2023-02-18T06:10:28;101260.43;;;4.26;52.56
62592;BME280;48659;41.622;2.276;2023-02-18T06:12:56;101258.84;;;4.59;52.07
62592;BME280;48659;41.622;2.276;2023-02-18T06:15:25;101260.30;;;4.72;52.44
62592;BME280;48659;41.622;2.276;2023-02-18T06:17:53;101258.14;;;4.60;52.14
62592;BME280;48659;41.622;2.276;2023-02-18T06:20:26;101254.15;;;4.24;52.94
62592;BME280;48659;41.622;2.276;2023-02-18T06:22:54;101254.82;;;4.74;52.37
62592;BME280;48659;41.622;2.276;2023-02-18T06:25:25;101254.10;;;4.68;52.33
62592;BME280;48659;41.622;2.276;2023-02-18T06:27:53;101254.16;;;4.74;51.64
62592;BME280;48659;41.622;2.276;2023-02-18T06:30:20;101251.18;;;4.36;52.52
62592;BME280;48659;41.622;2.276;2023-02-18T06:32:47;101251.43;;;4.80;51.54
62592;BME280;48659;41.622;2.276;2023-02-18T06:35:15;101259.37;;;4.28;52.21
62592;BME280;48659;41.622;2.276;2023-02-18T06:37:42;101263.83;;;4.33;52.18
62592;BME280;48659;41.622;2.276;2023-02-18T06:40:10;101263.27;;;4.39;51.92
62592;BME280;48659;41.622;2.276;2023-02-18T06:42:37;101262.09;;;4.79;51.83
62592;BME280;48659;41.622;2.276;2023-02-18T06:45:05;101263.50;;;4.62;51.96
62592;BME280;48659;41.622;2.276;2023-02-18T06:47:33;101268.57;;;4.53;51.98
62592;BME280;48659;41.622;2.276;2023-02-18T06:50:00;101275.65;;;4.79;51.96
62592;BME280;48659;41.622;2.276;2023-02-18T06:52:27;101278.41;;;4.81;51.93
62592;BME280;48659;41.622;2.276;2023-02-18T06:54:55;101274.93;;;4.66;52.21
62592;BME280;48659;41.622;2.276;2023-02-18T06:57:25;101271.89;;;4.14;52.12
62592;BME280;48659;41.622;2.276;2023-02-18T06:59:53;101273.58;;;4.16;52.25
62592;BME280;48659;41.622;2.276;2023-02-18T07:02:20;101274.63;;;3.88;52.77
62592;BME280;48659;41.622;2.276;2023-02-18T07:04:48;101276.36;;;4.36;53.17
62592;BME280;48659;41.622;2.276;2023-02-18T07:07:16;101279.78;;;4.66;53.17
62592;BME280;48659;41.622;2.276;2023-02-18T07:09:43;101281.06;;;4.65;51.86
62592;BME280;48659;41.622;2.276;2023-02-18T07:12:11;101277.83;;;4.91;51.53
62592;BME280;48659;41.622;2.276;2023-02-18T07:14:38;101281.81;;;4.37;52.97
62592;BME280;48659;41.622;2.276;2023-02-18T07:17:06;101288.52;;;3.77;54.51
62592;BME280;48659;41.622;2.276;2023-02-18T07:19:34;101290.78;;;3.90;53.32
62592;BME280;48659;41.622;2.276;2023-02-18T07:22:01;101289.26;;;3.19;55.30
62592;BME280;48659;41.622;2.276;2023-02-18T07:24:29;101289.94;;;3.62;54.97
62592;BME280;48659;41.622;2.276;2023-02-18T07:26:56;101295.52;;;3.90;55.47
62592;BME280;48659;41.622;2.276;2023-02-18T07:29:23;101300.12;;;4.66;53.72
62592;BME280;48659;41.622;2.276;2023-02-18T07:31:51;101301.42;;;5.26;51.73
62592;BME280;48659;41.622;2.276;2023-02-18T07:34:26;101304.10;;;4.22;52.95
62592;BME280;48659;41.622;2.276;2023-02-18T07:36:53;101300.49;;;6.29;51.93
62592;BME280;48659;41.622;2.276;2023-02-18T07:39:21;101301.22;;;4.47;53.45
62592;BME280;48659;41.622;2.276;2023-02-18T07:41:48;101299.42;;;4.92;51.98
62592;BME280;48659;41.622;2.276;2023-02-18T07:44:23;101301.22;;;5.68;50.58
62592;BME280;48659;41.622;2.276;2023-02-18T07:46:51;101301.26;;;5.18;51.25
62592;BME280;48659;41.622;2.276;2023-02-18T07:49:25;101296.77;;;6.26;49.57
62592;BME280;48659;41.622;2.276;2023-02-18T07:51:53;101301.93;;;6.20;50.91
62592;BME280;48659;41.622;2.276;2023-02-18T07:54:20;101307.18;;;6.35;50.57
62592;BME280;48659;41.622;2.276;2023-02-18T07:56:49;101302.54;;;7.21;47.69
62592;BME280;48659;41.622;2.276;2023-02-18T07:59:24;101299.39;;;7.51;45.56
62592;BME280;48659;41.622;2.276;2023-02-18T08:01:52;101303.20;;;7.77;45.18
62592;BME280;48659;41.622;2.276;2023-02-18T08:04:20;101303.06;;;7.86;43.31
62592;BME280;48659;41.622;2.276;2023-02-18T08:06:48;101303.67;;;7.91;42.52
62592;BME280;48659;41.622;2.276;2023-02-18T08:09:16;101307.01;;;8.27;42.49
62592;BME280;48659;41.622;2.276;2023-02-18T08:11:44;101308.12;;;9.10;41.74
62592;BME280;48659;41.622;2.276;2023-02-18T08:14:11;101306.05;;;9.67;41.52
62592;BME280;48659;41.622;2.276;2023-02-18T08:16:39;101309.60;;;9.47;41.62
62592;BME280;48659;41.622;2.276;2023-02-18T08:19:08;101310.69;;;9.58;40.51
62592;BME280;48659;41.622;2.276;2023-02-18T08:21:35;101313.07;;;9.61;41.36
62592;BME280;48659;41.622;2.276;2023-02-18T08:24:03;101313.26;;;9.63;41.18
62592;BME280;48659;41.622;2.276;2023-02-18T08:26:31;101319.01;;;9.52;41.91
62592;BME280;48659;41.622;2.276;2023-02-18T08:28:59;101316.69;;;9.94;42.21
62592;BME280;48659;41.622;2.276;2023-02-18T08:31:27;101317.73;;;9.08;42.65
62592;BME280;48659;41.622;2.276;2023-02-18T08:33:56;101317.39;;;10.01;42.52
62592;BME280;48659;41.622;2.276;2023-02-18T08:36:24;101320.61;;;9.35;42.19
62592;BME280;48659;41.622;2.276;2023-02-18T08:38:52;101320.47;;;9.67;41.96
62592;BME280;48659;41.622;2.276;2023-02-18T08:41:19;101326.09;;;10.41;40.87
62592;BME280;48659;41.622;2.276;2023-02-18T08:43:47;101327.23;;;10.43;41.36
62592;BME280;48659;41.622;2.276;2023-02-18T08:46:16;101323.94;;;10.90;41.63
62592;BME280;48659;41.622;2.276;2023-02-18T08:48:44;101325.06;;;8.29;43.38
62592;BME280;48659;41.622;2.276;2023-02-18T08:51:13;101325.62;;;9.83;41.29
62592;BME280;48659;41.622;2.276;2023-02-18T08:53:41;101329.64;;;10.07;40.24
62592;BME280;48659;41.622;2.276;2023-02-18T08:56:09;101328.30;;;11.25;39.63
62592;BME280;48659;41.622;2.276;2023-02-18T08:58:37;101325.21;;;11.26;37.98
62592;BME280;48659;41.622;2.276;2023-02-18T09:01:07;101317.87;;;11.48;37.68
62592;BME280;48659;41.622;2.276;2023-02-18T09:03:35;101324.17;;;9.52;40.20
62592;BME280;48659;41.622;2.276;2023-02-18T09:06:04;101326.20;;;10.66;39.65
62592;BME280;48659;41.622;2.276;2023-02-18T09:08:31;101325.74;;;11.25;38.02
62592;BME280;48659;41.622;2.276;2023-02-18T09:11:00;101318.28;;;11.65;37.98
62592;BME280;48659;41.622;2.276;2023-02-18T09:13:28;101316.58;;;11.48;36.71
62592;BME280;48659;41.622;2.276;2023-02-18T09:15:57;101318.62;;;12.17;37.36
62592;BME280;48659;41.622;2.276;2023-02-18T09:18:26;101322.99;;;11.45;38.70
62592;BME280;48659;41.622;2.276;2023-02-18T09:20:55;101322.85;;;11.97;38.73
62592;BME280;48659;41.622;2.276;2023-02-18T09:23:25;101323.94;;;12.15;37.24
62592;BME280;48659;41.622;2.276;2023-02-18T09:25:54;101323.18;;;12.63;39.68
62592;BME280;48659;41.622;2.276;2023-02-18T09:28:21;101321.09;;;12.50;37.65
62592;BME280;48659;41.622;2.276;2023-02-18T09:30:49;101324.34;;;12.52;37.78
62592;BME280;48659;41.622;2.276;2023-02-18T09:33:28;101325.19;;;12.49;37.49
62592;BME280;48659;41.622;2.276;2023-02-18T09:35:56;101323.56;;;12.62;37.70
62592;BME280;48659;41.622;2.276;2023-02-18T09:38:25;101319.60;;;11.94;37.00
62592;BME280;48659;41.622;2.276;2023-02-18T09:40:53;101319.35;;;12.97;36.23
62592;BME280;48659;41.622;2.276;2023-02-18T09:43:29;101318.52;;;12.66;36.73
62592;BME280;48659;41.622;2.276;2023-02-18T09:45:58;101317.31;;;12.85;36.75
62592;BME280;48659;41.622;2.276;2023-02-18T09:48:31;101319.19;;;12.84;37.33
62592;BME280;48659;41.622;2.276;2023-02-18T09:50:59;101321.01;;;12.70;37.59
62592;BME280;48659;41.622;2.276;2023-02-18T09:53:27;101318.41;;;13.01;37.84
62592;BME280;48659;41.622;2.276;2023-02-18T09:55:56;101320.20;;;13.22;37.18
62592;BME280;48659;41.622;2.276;2023-02-18T09:58:25;101317.09;;;13.74;36.22
62592;BME280;48659;41.622;2.276;2023-02-18T10:01:01;101316.58;;;13.66;36.91
62592;BME280;48659;41.622;2.276;2023-02-18T10:03:29;101318.84;;;13.97;36.75
62592;BME280;48659;41.622;2.276;2023-02-18T10:05:59;101317.03;;;14.11;37.12
62592;BME280;48659;41.622;2.276;2023-02-18T10:08:31;101315.57;;;14.09;37.02
62592;BME280;48659;41.622;2.276;2023-02-18T10:11:00;101310.58;;;14.43;36.90
62592;BME280;48659;41.622;2.276;2023-02-18T10:13:30;101306.58;;;13.93;35.64
62592;BME280;48659;41.622;2.276;2023-02-18T10:15:59;101305.93;;;13.89;35.97
62592;BME280;48659;41.622;2.276;2023-02-18T10:18:29;101304.66;;;14.32;36.34
62592;BME280;48659;41.622;2.276;2023-02-18T10:21:04;101301.03;;;14.10;35.11
62592;BME280;48659;41.622;2.276;2023-02-18T10:23:36;101302.05;;;14.73;34.63
62592;BME280;48659;41.622;2.276;2023-02-18T10:26:08;101300.61;;;15.19;34.96
62592;BME280;48659;41.622;2.276;2023-02-18T10:28:37;101297.43;;;14.44;34.18
62592;BME280;48659;41.622;2.276;2023-02-18T10:31:09;101294.45;;;14.90;33.97
62592;BME280;48659;41.622;2.276;2023-02-18T10:33:44;101293.92;;;14.62;34.55
62592;BME280;48659;41.622;2.276;2023-02-18T10:36:22;101287.34;;;13.23;36.00
62592;BME280;48659;41.622;2.276;2023-02-18T10:39:19;101290.25;;;15.03;34.51
62592;BME280;48659;41.622;2.276;2023-02-18T10:41:59;101291.65;;;14.26;34.48
62592;BME280;48659;41.622;2.276;2023-02-18T10:44:35;101292.73;;;14.57;34.48
62592;BME280;48659;41.622;2.276;2023-02-18T10:47:17;101285.69;;;15.17;33.72
62592;BME280;48659;41.622;2.276;2023-02-18T10:49:58;101281.12;;;14.89;33.66
62592;BME280;48659;41.622;2.276;2023-02-18T10:52:28;101272.24;;;14.43;33.32
62592;BME280;48659;41.622;2.276;2023-02-18T10:55:01;101279.08;;;14.08;34.83
62592;BME280;48659;41.622;2.276;2023-02-18T10:57:31;101266.90;;;15.12;33.45
62592;BME280;48659;41.622;2.276;2023-02-18T11:00:01;101265.96;;;15.57;32.37
62592;BME280;48659;41.622;2.276;2023-02-18T11:02:30;101268.83;;;14.03;34.78
62592;BME280;48659;41.622;2.276;2023-02-18T11:04:59;101261.11;;;15.42;32.26
62592;BME280;48659;41.622;2.276;2023-02-18T11:07:45;101261.90;;;15.57;31.09
62592;BME280;48659;41.622;2.276;2023-02-18T11:10:17;101260.21;;;16.03;30.85
62592;BME280;48659;41.622;2.276;2023-02-18T11:12:46;101260.31;;;15.03;31.40
62592;BME280;48659;41.622;2.276;2023-02-18T11:15:18;101258.39;;;16.34;30.11
62592;BME280;48659;41.622;2.276;2023-02-18T11:17:48;101257.30;;;16.25;29.39
62592;BME280;48659;41.622;2.276;2023-02-18T11:20:26;101250.12;;;16.75;28.56
62592;BME280;48659;41.622;2.276;2023-02-18T11:22:58;101245.35;;;16.39;28.52
62592;BME280;48659;41.622;2.276;2023-02-18T11:25:27;101244.07;;;16.43;27.84
62592;BME280;48659;41.622;2.276;2023-02-18T11:28:00;101242.40;;;15.92;28.40
62592;BME280;48659;41.622;2.276;2023-02-18T11:30:33;101248.43;;;13.64;30.92
62592;BME280;48659;41.622;2.276;2023-02-18T11:33:06;101240.56;;;16.28;28.48
62592;BME280;48659;41.622;2.276;2023-02-18T11:35:36;101233.16;;;14.30;29.97
62592;BME280;48659;41.622;2.276;2023-02-18T11:38:15;101225.76;;;16.60;28.34
62592;BME280;48659;41.622;2.276;2023-02-18T11:40:58;101216.25;;;16.95;27.90
62592;BME280;48659;41.622;2.276;2023-02-18T11:43:30;101206.87;;;17.11;26.62
62592;BME280;48659;41.622;2.276;2023-02-18T11:46:08;101199.33;;;17.08;26.65
62592;BME280;48659;41.622;2.276;2023-02-18T11:48:36;101194.81;;;17.41;26.62
62592;BME280;48659;41.622;2.276;2023-02-18T11:51:04;101190.77;;;17.45;25.67
62592;BME280;48659;41.622;2.276;2023-02-18T11:53:34;101186.48;;;17.39;25.33
62592;BME280;48659;41.622;2.276;2023-02-18T11:56:04;101182.97;;;17.69;25.00
62592;BME280;48659;41.622;2.276;2023-02-18T11:58:37;101175.82;;;17.37;25.08
62592;BME280;48659;41.622;2.276;2023-02-18T12:01:13;101169.06;;;17.35;25.62
62592;BME280;48659;41.622;2.276;2023-02-18T12:03:47;101169.67;;;17.84;25.04
62592;BME280;48659;41.622;2.276;2023-02-18T12:06:24;101160.54;;;17.31;25.44
62592;BME280;48659;41.622;2.276;2023-02-18T12:08:58;101155.16;;;16.98;25.47
62592;BME280;48659;41.622;2.276;2023-02-18T12:11:30;101152.58;;;17.52;25.48
62592;BME280;48659;41.622;2.276;2023-02-18T12:13:59;101153.40;;;17.62;25.93
62592;BME280;48659;41.622;2.276;2023-02-18T12:16:33;101144.50;;;17.65;25.41
62592;BME280;48659;41.622;2.276;2023-02-18T12:19:17;101143.52;;;17.62;25.49
62592;BME280;48659;41.622;2.276;2023-02-18T12:21:57;101134.93;;;18.48;24.53
62592;BME280;48659;41.622;2.276;2023-02-18T12:24:40;101131.17;;;16.21;26.02
62592;BME280;48659;41.622;2.276;2023-02-18T12:27:16;101130.85;;;17.89;24.88
62592;BME280;48659;41.622;2.276;2023-02-18T12:30:31;101119.93;;;16.78;24.66
62592;BME280;48659;41.622;2.276;2023-02-18T12:33:10;101116.18;;;18.16;25.08
62592;BME280;48659;41.622;2.276;2023-02-18T12:35:51;101110.72;;;16.29;23.85
62592;BME280;48659;41.622;2.276;2023-02-18T12:38:40;101107.60;;;17.30;23.60
62592;BME280;48659;41.622;2.276;2023-02-18T12:41:49;101100.69;;;17.11;22.18
62592;BME280;48659;41.622;2.276;2023-02-18T12:44:47;101085.99;;;18.09;22.40
62592;BME280;48659;41.622;2.276;2023-02-18T12:47:40;101080.06;;;17.46;20.99
62592;BME280;48659;41.622;2.276;2023-02-18T12:50:43;101078.14;;;19.02;21.77
62592;BME280;48659;41.622;2.276;2023-02-18T12:53:35;101074.37;;;19.10;21.91
62592;BME280;48659;41.622;2.276;2023-02-18T12:56:32;101063.87;;;18.91;22.83
62592;BME280;48659;41.622;2.276;2023-02-18T12:59:10;101059.68;;;18.48;22.99
62592;BME280;48659;41.622;2.276;2023-02-18T13:01:47;101054.33;;;18.90;21.96
62592;BME280;48659;41.622;2.276;2023-02-18T13:04:33;101049.34;;;19.00;22.15
62592;BME280;48659;41.622;2.276;2023-02-18T13:07:46;101044.30;;;19.41;22.63
62592;BME280;48659;41.622;2.276;2023-02-18T13:10:53;101036.51;;;19.49;22.20
62592;BME280;48659;41.622;2.276;2023-02-18T13:13:31;101031.47;;;19.14;24.01
62592;BME280;48659;41.622;2.276;2023-02-18T13:16:03;101022.06;;;19.06;23.41
62592;BME280;48659;41.622;2.276;2023-02-18T13:18:35;101022.44;;;18.79;23.38
62592;BME280;48659;41.622;2.276;2023-02-18T13:21:07;101014.14;;;19.49;22.61
62592;BME280;48659;41.622;2.276;2023-02-18T13:23:39;101009.75;;;19.64;22.88